Time;durP1;ratioP1;P1;durP2;ratioP2;P2;SDS_P1;SDS_P2;PMS_P1;PMS_P2;Temp;Humidity;BMP_temperature;BMP_pressure;BME280_temperature;BME280_humidity;BME280_pressure;Samples;Min_cycle;Max_cycle;Signal;HPM_P1;HPM_P2
2023/12/09 00:01:10;;;;;;;5.20;2.33;;;7.60;99.90;;;;;;5072207;28;20116;-55
2023/12/09 00:03:36;;;;;;;6.70;2.47;;;7.60;99.90;;;;;;5072175;28;20025;-56
2023/12/09 00:06:01;;;;;;;9.03;2.73;;;7.60;99.90;;;;;;5070748;28;20453;-54
2023/12/09 00:08:27;;;;;;;5.73;2.40;;;7.70;99.90;;;;;;5072254;28;20537;-54
2023/12/09 00:10:53;;;;;;;7.20;2.30;;;7.70;99.90;;;;;;5072055;28;20108;-54
2023/12/09 00:13:18;;;;;;;4.17;2.20;;;7.70;99.90;;;;;;5071816;28;20512;-55
2023/12/09 00:15:44;;;;;;;8.53;2.63;;;7.70;99.90;;;;;;5072157;28;20111;-55
2023/12/09 00:18:09;;;;;;;4.47;1.90;;;7.70;99.90;;;;;;5072495;28;20036;-56
2023/12/09 00:20:35;;;;;;;8.37;3.07;;;7.60;99.90;;;;;;5071859;28;20035;-55
2023/12/09 00:23:01;;;;;;;7.20;2.40;;;7.60;99.90;;;;;;5072139;28;20043;-55
2023/12/09 00:25:26;;;;;;;6.73;2.50;;;7.60;99.90;;;;;;5072008;28;20020;-55
2023/12/09 00:27:52;;;;;;;4.97;1.67;;;7.60;99.90;;;;;;5072180;28;20029;-55
2023/12/09 00:30:17;;;;;;;6.63;2.37;;;7.50;99.90;;;;;;5071770;28;20380;-55
2023/12/09 00:32:44;;;;;;;7.23;2.10;;;7.50;99.90;;;;;;5071810;28;20028;-56
2023/12/09 00:35:10;;;;;;;5.70;2.37;;;7.50;99.90;;;;;;5071616;28;20060;-57
2023/12/09 00:37:36;;;;;;;8.17;2.53;;;7.50;99.90;;;;;;5071464;28;20047;-57
2023/12/09 00:40:02;;;;;;;9.23;2.33;;;7.50;99.90;;;;;;5072263;28;20029;-57
2023/12/09 00:42:28;;;;;;;8.37;2.23;;;7.50;99.90;;;;;;5078108;28;20119;-56
2023/12/09 00:44:54;;;;;;;7.23;2.10;;;7.60;99.90;;;;;;5078445;28;20111;-57
2023/12/09 00:47:19;;;;;;;8.27;2.17;;;7.60;99.90;;;;;;5078171;28;20036;-55
2023/12/09 00:49:45;;;;;;;6.70;2.50;;;7.50;99.90;;;;;;5078374;28;20090;-56
2023/12/09 00:52:11;;;;;;;6.97;3.10;;;7.60;99.90;;;;;;5078093;28;20036;-55
2023/12/09 00:54:37;;;;;;;6.07;2.40;;;7.50;99.90;;;;;;5078311;28;20064;-56
2023/12/09 00:57:03;;;;;;;4.70;2.23;;;7.50;99.90;;;;;;5078039;28;20056;-55
2023/12/09 00:59:28;;;;;;;4.60;1.93;;;7.50;99.90;;;;;;5078180;28;20659;-54
2023/12/09 01:01:54;;;;;;;9.13;2.40;;;7.60;99.90;;;;;;5076966;28;20043;-54
2023/12/09 01:04:19;;;;;;;6.37;2.27;;;7.50;99.90;;;;;;5078312;28;20417;-57
2023/12/09 01:06:45;;;;;;;7.97;2.17;;;7.40;99.90;;;;;;5078393;28;20032;-56
2023/12/09 01:09:10;;;;;;;7.80;2.20;;;7.40;99.90;;;;;;5076934;28;20025;-55
2023/12/09 01:11:36;;;;;;;7.73;2.10;;;7.40;99.90;;;;;;5078017;28;20478;-56
2023/12/09 01:14:02;;;;;;;6.70;2.20;;;7.30;99.90;;;;;;5078038;28;20032;-57
2023/12/09 01:16:27;;;;;;;7.77;2.80;;;7.30;99.90;;;;;;5077943;28;20036;-57
2023/12/09 01:18:53;;;;;;;11.00;2.87;;;7.30;99.90;;;;;;5077945;28;20478;-56
2023/12/09 01:21:19;;;;;;;4.63;1.73;;;7.30;99.90;;;;;;5077931;28;20103;-55
2023/12/09 01:23:45;;;;;;;4.87;2.17;;;7.30;99.90;;;;;;5077904;28;20485;-55
2023/12/09 01:26:10;;;;;;;5.43;2.30;;;7.30;99.90;;;;;;5077912;28;20054;-52
2023/12/09 01:28:36;;;;;;;5.87;2.00;;;7.20;99.90;;;;;;5077828;28;20085;-55
2023/12/09 01:31:01;;;;;;;5.70;1.83;;;7.30;99.90;;;;;;5077978;28;20484;-55
2023/12/09 01:33:27;;;;;;;6.33;1.60;;;7.30;99.90;;;;;;5077849;28;20028;-55
2023/12/09 01:35:53;;;;;;;6.63;1.87;;;7.30;99.90;;;;;;5077797;28;20028;-54
2023/12/09 01:38:18;;;;;;;5.07;1.97;;;7.40;99.90;;;;;;5077817;28;20086;-56
2023/12/09 01:40:51;;;;;;;9.60;1.73;;;7.30;99.90;;;;;;5077702;28;20068;-54
2023/12/09 01:43:16;;;;;;;8.30;2.40;;;7.30;99.90;;;;;;5078099;28;20082;-56
2023/12/09 01:45:42;;;;;;;8.20;1.90;;;7.20;99.90;;;;;;5077704;28;20485;-55
2023/12/09 01:48:08;;;;;;;5.00;2.13;;;7.20;99.90;;;;;;5077836;28;20035;-53
2023/12/09 01:50:34;;;;;;;9.63;2.13;;;7.20;99.90;;;;;;5076411;28;20037;-56
2023/12/09 01:53:00;;;;;;;7.30;1.90;;;7.20;99.90;;;;;;5075388;28;20499;-54
2023/12/09 01:55:26;;;;;;;3.77;1.73;;;7.20;99.90;;;;;;5074365;28;20029;-55
2023/12/09 01:57:52;;;;;;;6.53;1.60;;;7.20;99.90;;;;;;5074451;28;20021;-56
2023/12/09 02:00:18;;;;;;;5.60;1.60;;;7.20;99.90;;;;;;5074451;28;20488;-56
2023/12/09 02:02:45;;;;;;;6.33;1.77;;;7.10;99.90;;;;;;5074378;28;20047;-52
2023/12/09 02:05:11;;;;;;;8.40;2.50;;;7.10;99.90;;;;;;5074157;28;20043;-56
2023/12/09 02:07:37;;;;;;;6.60;1.90;;;7.00;99.90;;;;;;5074319;28;20033;-56
2023/12/09 02:10:04;;;;;;;7.20;2.07;;;7.00;99.90;;;;;;5074097;28;20408;-55
2023/12/09 02:12:48;;;;;;;5.23;2.10;;;7.00;99.90;;;;;;5074119;28;20556;-56
2023/12/09 02:15:36;;;;;;;8.53;1.93;;;7.10;99.90;;;;;;5074212;28;20054;-55
2023/12/09 02:18:04;;;;;;;8.77;2.43;;;7.10;99.90;;;;;;5074114;28;20537;-55
2023/12/09 02:20:30;;;;;;;7.97;2.03;;;7.10;99.90;;;;;;5073851;28;20029;-52
2023/12/09 02:23:09;;;;;;;6.50;1.90;;;7.10;99.90;;;;;;5074025;28;20046;-56
2023/12/09 02:25:35;;;;;;;7.23;2.33;;;7.10;99.90;;;;;;5073827;28;20040;-53
2023/12/09 02:28:05;;;;;;;4.90;1.40;;;7.10;99.90;;;;;;5073903;28;20040;-56
2023/12/09 02:30:50;;;;;;;7.33;1.73;;;7.10;99.90;;;;;;5073793;28;20388;-56
2023/12/09 02:33:17;;;;;;;10.23;2.10;;;7.10;99.90;;;;;;5072471;28;20107;-56
2023/12/09 02:35:45;;;;;;;7.93;1.80;;;7.10;99.90;;;;;;5073603;28;20485;-56
2023/12/09 02:38:11;;;;;;;4.80;1.60;;;7.10;99.90;;;;;;5073636;28;20037;-55
2023/12/09 02:40:38;;;;;;;7.50;1.87;;;7.10;99.90;;;;;;5074157;28;20032;-56
2023/12/09 02:43:05;;;;;;;5.60;1.50;;;7.10;99.90;;;;;;5074190;28;20382;-53
2023/12/09 02:45:30;;;;;;;8.43;1.70;;;7.00;99.90;;;;;;5073507;28;20028;-56
2023/12/09 02:47:56;;;;;;;10.93;1.67;;;7.00;99.90;;;;;;5074930;28;20102;-55
2023/12/09 02:50:22;;;;;;;4.30;1.50;;;7.00;99.90;;;;;;5073523;28;20431;-56
2023/12/09 02:52:48;;;;;;;2.80;1.23;;;6.90;99.90;;;;;;5073471;28;20036;-56
2023/12/09 02:55:13;;;;;;;9.33;2.10;;;6.90;99.90;;;;;;5073368;28;20055;-56
2023/12/09 02:57:39;;;;;;;3.77;1.63;;;6.80;99.90;;;;;;5073341;28;20086;-53
2023/12/09 03:00:06;;;;;;;4.23;1.60;;;6.80;99.90;;;;;;5073134;28;20024;-55
2023/12/09 03:02:32;;;;;;;5.53;1.70;;;6.70;99.90;;;;;;5073340;28;20032;-56
2023/12/09 03:05:00;;;;;;;8.73;2.03;;;6.70;99.90;;;;;;5072740;28;20039;-57
2023/12/09 03:07:26;;;;;;;10.87;1.87;;;6.70;99.90;;;;;;5073223;28;20482;-57
2023/12/09 03:09:51;;;;;;;6.10;1.53;;;6.70;99.90;;;;;;5073032;28;20119;-56
2023/12/09 03:12:17;;;;;;;5.53;1.77;;;6.60;99.90;;;;;;5072965;28;20024;-57
2023/12/09 03:14:43;;;;;;;7.10;1.97;;;6.60;99.90;;;;;;5072884;28;20037;-57
2023/12/09 03:17:11;;;;;;;7.63;2.93;;;6.60;99.90;;;;;;5072951;28;20024;-57
2023/12/09 03:19:37;;;;;;;8.10;2.13;;;6.50;99.90;;;;;;5072773;28;20043;-56
2023/12/09 03:22:03;;;;;;;6.83;1.67;;;6.50;99.90;;;;;;5072816;28;20020;-54
2023/12/09 03:24:29;;;;;;;4.23;1.60;;;6.50;99.90;;;;;;5072792;28;20462;-55
2023/12/09 03:26:54;;;;;;;4.63;1.70;;;6.50;99.90;;;;;;5072715;28;20039;-53
2023/12/09 03:29:21;;;;;;;4.87;1.50;;;6.40;99.90;;;;;;5072573;28;20119;-56
2023/12/09 03:31:47;;;;;;;3.93;1.77;;;6.40;99.90;;;;;;5072610;28;20029;-56
2023/12/09 03:34:13;;;;;;;7.07;1.60;;;6.50;99.90;;;;;;5072596;28;20029;-55
2023/12/09 03:36:39;;;;;;;6.87;2.13;;;6.50;99.90;;;;;;5072378;28;20040;-56
2023/12/09 03:39:06;;;;;;;7.80;1.87;;;6.40;99.90;;;;;;5072472;28;20037;-56
2023/12/09 03:41:35;;;;;;;5.60;2.00;;;6.40;99.90;;;;;;5072438;28;20025;-52
2023/12/09 03:44:01;;;;;;;7.70;1.88;;;6.40;99.90;;;;;;5072593;28;20489;-55
2023/12/09 03:46:27;;;;;;;6.30;1.63;;;6.30;99.90;;;;;;5072350;28;20488;-57
2023/12/09 03:48:52;;;;;;;5.83;1.77;;;6.40;99.90;;;;;;5072341;28;20028;-56
2023/12/09 03:51:18;;;;;;;9.03;1.50;;;6.30;99.90;;;;;;5072372;28;20120;-57
2023/12/09 03:53:44;;;;;;;11.33;2.27;;;6.30;99.90;;;;;;5072141;28;20036;-56
2023/12/09 03:56:11;;;;;;;9.03;1.67;;;6.40;99.90;;;;;;5072152;28;20040;-56
2023/12/09 03:58:37;;;;;;;4.53;1.80;;;6.40;99.90;;;;;;5072154;28;20028;-56
2023/12/09 04:01:03;;;;;;;7.37;1.90;;;6.40;99.90;;;;;;5072171;28;20520;-57
2023/12/09 04:03:29;;;;;;;7.63;1.63;;;6.40;99.90;;;;;;5072334;28;20493;-52
2023/12/09 04:05:54;;;;;;;5.60;1.60;;;6.40;99.90;;;;;;5074239;28;20045;-55
2023/12/09 04:08:20;;;;;;;12.00;2.17;;;6.40;99.90;;;;;;5071323;28;20039;-54
2023/12/09 04:10:46;;;;;;;4.43;1.23;;;6.30;99.90;;;;;;5071872;28;20032;-57
2023/12/09 04:13:12;;;;;;;5.03;1.73;;;6.30;99.90;;;;;;5071981;28;20044;-52
2023/12/09 04:15:40;;;;;;;8.27;1.50;;;6.40;99.90;;;;;;5071031;28;20028;-55
2023/12/09 04:18:06;;;;;;;10.77;2.00;;;6.40;99.90;;;;;;5071987;28;20025;-57
2023/12/09 04:20:32;;;;;;;3.70;1.60;;;6.40;99.90;;;;;;5071861;28;20036;-52
2023/12/09 04:22:57;;;;;;;20.40;6.23;;;6.40;99.90;;;;;;5072000;28;20439;-52
2023/12/09 04:25:24;;;;;;;6.10;2.57;;;6.40;99.90;;;;;;5071673;28;20054;-53
2023/12/09 04:27:50;;;;;;;8.63;2.03;;;6.50;99.90;;;;;;5071859;28;20035;-54
2023/12/09 04:30:16;;;;;;;6.67;1.77;;;6.60;99.90;;;;;;5072108;28;20028;-53
2023/12/09 04:32:42;;;;;;;5.93;1.50;;;6.60;99.90;;;;;;5071845;28;20381;-55
2023/12/09 04:35:08;;;;;;;4.80;1.40;;;6.70;99.90;;;;;;5072110;28;20024;-56
2023/12/09 04:37:34;;;;;;;6.57;2.00;;;6.60;99.90;;;;;;5072148;28;20072;-55
2023/12/09 04:40:00;;;;;;;7.03;1.83;;;6.60;99.90;;;;;;5070852;28;20517;-53
2023/12/09 04:42:27;;;;;;;7.97;1.87;;;6.60;99.90;;;;;;5072504;28;20470;-52
2023/12/09 04:44:53;;;;;;;6.13;1.47;;;6.70;99.90;;;;;;5072580;28;20392;-53
2023/12/09 04:47:19;;;;;;;7.40;1.63;;;6.70;99.90;;;;;;5072592;28;20037;-53
2023/12/09 04:49:45;;;;;;;7.47;1.60;;;6.60;99.90;;;;;;5073280;28;20064;-53
2023/12/09 04:52:10;;;;;;;3.93;1.30;;;6.70;99.90;;;;;;5072733;28;20393;-53
2023/12/09 04:54:36;;;;;;;9.27;1.90;;;6.70;99.90;;;;;;5073237;28;20028;-53
2023/12/09 04:57:01;;;;;;;7.27;1.80;;;6.70;99.90;;;;;;5073835;28;20031;-54
2023/12/09 04:59:27;;;;;;;6.07;1.90;;;6.80;99.90;;;;;;5072891;28;20436;-57
2023/12/09 05:01:53;;;;;;;14.93;3.00;;;6.70;99.90;;;;;;5072489;28;20092;-57
2023/12/09 05:04:19;;;;;;;5.20;1.80;;;6.60;99.90;;;;;;5071778;28;20044;-57
2023/12/09 05:06:45;;;;;;;8.00;1.77;;;6.70;99.90;;;;;;5071673;28;20037;-57
2023/12/09 05:09:12;;;;;;;10.70;2.03;;;6.70;99.90;;;;;;5071431;28;20041;-57
2023/12/09 05:11:37;;;;;;;12.07;2.37;;;6.60;99.90;;;;;;5071498;28;20038;-57
2023/12/09 05:14:03;;;;;;;17.67;2.57;;;6.60;99.90;;;;;;5071385;28;20028;-57
2023/12/09 05:16:29;;;;;;;7.53;2.23;;;6.50;99.90;;;;;;5071310;28;20040;-57
2023/12/09 05:18:54;;;;;;;6.30;1.93;;;6.50;99.90;;;;;;5071512;28;20028;-57
2023/12/09 05:21:20;;;;;;;7.20;2.13;;;6.50;99.90;;;;;;5071277;28;20025;-56
2023/12/09 05:23:46;;;;;;;7.00;1.90;;;6.50;99.90;;;;;;5071297;28;20025;-54
2023/12/09 05:26:26;;;;;;;7.27;2.33;;;6.40;99.90;;;;;;5071385;28;20476;-55
2023/12/09 05:28:53;;;;;;;8.43;1.67;;;6.30;99.90;;;;;;5073612;28;20028;-57
2023/12/09 05:31:20;;;;;;;3.37;1.47;;;6.30;99.90;;;;;;5074983;28;20032;-56
2023/12/09 05:33:46;;;;;;;8.33;2.30;;;6.30;99.90;;;;;;5074873;28;20170;-55
2023/12/09 05:36:12;;;;;;;9.03;2.23;;;6.30;99.90;;;;;;5074799;28;20073;-53
2023/12/09 05:38:38;;;;;;;5.00;1.70;;;6.20;99.90;;;;;;5074758;28;20517;-57
2023/12/09 05:41:07;;;;;;;6.73;1.90;;;6.30;99.90;;;;;;5074736;28;20024;-56
2023/12/09 05:43:35;;;;;;;5.25;1.70;;;6.20;99.90;;;;;;5074797;28;20039;-54
2023/12/09 05:46:01;;;;;;;5.60;2.20;;;6.20;99.90;;;;;;5074729;28;20035;-53
2023/12/09 05:48:26;;;;;;;3.67;1.33;;;6.20;99.90;;;;;;5074729;28;20032;-57
2023/12/09 05:50:52;;;;;;;5.87;1.57;;;6.30;99.90;;;;;;5074491;28;20462;-55
2023/12/09 05:53:17;;;;;;;4.93;1.93;;;6.30;99.90;;;;;;5074418;28;20473;-56
2023/12/09 05:55:43;;;;;;;6.63;1.90;;;6.30;99.90;;;;;;5073199;28;20021;-52
2023/12/09 05:58:09;;;;;;;3.60;1.93;;;6.30;99.90;;;;;;5074497;28;20124;-57
2023/12/09 06:00:34;;;;;;;10.83;2.20;;;6.30;99.90;;;;;;5074324;28;20094;-55
2023/12/09 06:03:00;;;;;;;9.70;3.43;;;6.30;99.90;;;;;;5074452;28;20562;-56
2023/12/09 06:05:25;;;;;;;8.03;2.23;;;6.30;99.90;;;;;;5074158;28;20055;-56
2023/12/09 06:07:51;;;;;;;4.97;1.80;;;6.30;99.90;;;;;;5073085;28;20040;-54
2023/12/09 06:10:17;;;;;;;4.57;2.17;;;6.30;99.90;;;;;;5074305;28;20078;-57
2023/12/09 06:12:42;;;;;;;6.50;1.63;;;6.30;99.90;;;;;;5074220;28;20029;-56
2023/12/09 06:15:08;;;;;;;2.77;1.37;;;6.30;99.90;;;;;;5074033;28;20037;-56
2023/12/09 06:17:34;;;;;;;6.73;1.90;;;6.30;99.90;;;;;;5074136;28;20039;-53
2023/12/09 06:19:59;;;;;;;6.03;2.27;;;6.20;99.90;;;;;;5073902;28;20040;-53
2023/12/09 06:22:25;;;;;;;5.87;2.10;;;6.20;99.90;;;;;;5074062;28;20552;-53
2023/12/09 06:24:51;;;;;;;6.10;2.30;;;6.20;99.90;;;;;;5074180;28;20029;-56
2023/12/09 06:27:17;;;;;;;5.23;1.57;;;6.20;99.90;;;;;;5073964;28;20069;-56
2023/12/09 06:29:46;;;;;;;7.13;1.97;;;6.20;99.90;;;;;;5073918;28;20056;-57
2023/12/09 06:32:15;;;;;;;6.05;1.67;;;6.20;99.90;;;;;;5073902;28;20086;-56
2023/12/09 06:34:40;;;;;;;4.83;1.53;;;6.20;99.90;;;;;;5073776;28;20077;-56
2023/12/09 06:37:06;;;;;;;5.57;2.07;;;6.20;99.90;;;;;;5073920;28;20435;-55
2023/12/09 06:39:31;;;;;;;5.57;1.93;;;6.30;99.90;;;;;;5072703;28;20032;-55
2023/12/09 06:41:57;;;;;;;4.80;2.00;;;6.30;99.90;;;;;;5073638;28;20029;-55
2023/12/09 06:44:22;;;;;;;6.20;1.90;;;6.30;99.90;;;;;;5072470;28;20337;-57
2023/12/09 06:46:48;;;;;;;4.03;2.10;;;6.30;99.90;;;;;;5073970;28;20120;-57
2023/12/09 06:49:16;;;;;;;4.43;1.70;;;6.40;99.90;;;;;;5073456;28;20040;-54
2023/12/09 06:51:43;;;;;;;4.63;1.73;;;6.40;99.90;;;;;;5073461;28;20052;-57
2023/12/09 06:54:10;;;;;;;5.37;1.97;;;6.40;99.90;;;;;;5073377;28;20094;-57
2023/12/09 06:56:36;;;;;;;5.27;1.30;;;6.50;99.90;;;;;;5073287;28;20429;-56
2023/12/09 06:59:02;;;;;;;3.57;1.70;;;6.50;99.90;;;;;;5073311;28;20025;-53
2023/12/09 07:01:28;;;;;;;5.60;1.83;;;6.40;99.90;;;;;;5073313;28;20040;-56
2023/12/09 07:03:54;;;;;;;4.97;1.73;;;6.50;99.90;;;;;;5073182;28;20546;-57
2023/12/09 07:06:24;;;;;;;6.77;1.70;;;6.50;99.90;;;;;;5073092;28;20040;-55
2023/12/09 07:08:50;;;;;;;4.77;1.67;;;6.50;99.90;;;;;;5072957;28;20037;-52
2023/12/09 07:11:17;;;;;;;5.60;1.40;;;6.60;99.90;;;;;;5073029;28;20508;-56
2023/12/09 07:13:44;;;;;;;4.50;1.40;;;6.60;99.90;;;;;;5072918;28;20040;-55
2023/12/09 07:16:10;;;;;;;3.23;1.23;;;6.60;99.90;;;;;;5072898;28;20025;-56
2023/12/09 07:18:43;;;;;;;3.60;1.53;;;6.60;99.90;;;;;;5073133;28;20032;-57
2023/12/09 07:21:09;;;;;;;3.40;1.43;;;6.60;99.90;;;;;;5072948;28;20035;-56
2023/12/09 07:23:35;;;;;;;5.70;1.60;;;6.60;99.90;;;;;;5072812;28;20024;-56
2023/12/09 07:26:01;;;;;;;7.73;2.10;;;6.60;99.90;;;;;;5072674;28;20066;-55
2023/12/09 07:28:28;;;;;;;5.70;1.53;;;6.70;99.90;;;;;;5072671;28;20070;-57
2023/12/09 07:30:54;;;;;;;1.90;1.10;;;6.70;99.90;;;;;;5072586;28;20036;-56
2023/12/09 07:33:20;;;;;;;5.17;1.30;;;6.70;99.90;;;;;;5072711;28;20400;-56
2023/12/09 07:35:46;;;;;;;15.47;4.90;;;6.70;99.90;;;;;;5072546;28;20413;-57
2023/12/09 07:38:11;;;;;;;3.80;1.47;;;6.70;99.90;;;;;;5072452;28;20028;-53
2023/12/09 07:40:37;;;;;;;6.93;1.43;;;6.80;99.90;;;;;;5072542;28;20021;-57
2023/12/09 07:43:03;;;;;;;2.87;1.20;;;6.80;99.90;;;;;;5072413;28;20115;-55
2023/12/09 07:45:29;;;;;;;1.70;0.63;;;6.80;99.90;;;;;;5072324;28;20028;-55
2023/12/09 07:47:54;;;;;;;7.73;1.77;;;6.80;99.90;;;;;;5072344;28;20031;-53
2023/12/09 07:50:20;;;;;;;6.40;1.33;;;6.90;99.90;;;;;;5072127;28;20024;-56
2023/12/09 07:52:45;;;;;;;4.50;1.00;;;6.80;99.90;;;;;;5072250;28;20074;-56
2023/12/09 07:55:11;;;;;;;6.37;1.17;;;6.90;99.90;;;;;;5072212;28;20036;-54
2023/12/09 07:57:37;;;;;;;4.07;1.30;;;6.90;99.90;;;;;;5072662;28;20066;-55
2023/12/09 08:00:04;;;;;;;1.90;0.70;;;6.90;99.90;;;;;;5072052;28;20031;-55
2023/12/09 08:02:30;;;;;;;2.23;0.90;;;7.00;99.90;;;;;;5072168;28;20063;-56
2023/12/09 08:04:56;;;;;;;1.07;0.53;;;7.10;99.90;;;;;;5072145;28;20060;-57
2023/12/09 08:07:21;;;;;;;3.27;0.93;;;7.10;99.90;;;;;;5072012;28;20031;-55
2023/12/09 08:09:47;;;;;;;3.83;1.27;;;7.10;99.90;;;;;;5072049;28;20607;-56
2023/12/09 08:12:13;;;;;;;4.77;0.83;;;7.20;99.90;;;;;;5071844;28;20020;-56
2023/12/09 08:14:38;;;;;;;3.73;1.07;;;7.20;99.90;;;;;;5071943;28;20485;-56
2023/12/09 08:17:04;;;;;;;4.13;1.00;;;7.20;99.90;;;;;;5071851;28;20035;-53
2023/12/09 08:19:30;;;;;;;5.40;1.00;;;7.20;99.90;;;;;;5072032;28;20032;-55
2023/12/09 08:21:55;;;;;;;3.13;0.80;;;7.20;99.90;;;;;;5072155;28;20036;-56
2023/12/09 08:24:21;;;;;;;1.50;0.70;;;7.30;99.90;;;;;;5072404;28;20056;-55
2023/12/09 08:26:47;;;;;;;2.93;1.10;;;7.30;99.90;;;;;;5071857;28;20021;-55
2023/12/09 08:29:14;;;;;;;2.00;0.80;;;7.30;99.90;;;;;;5071739;28;20036;-56
2023/12/09 08:31:46;;;;;;;2.70;1.00;;;7.40;99.90;;;;;;5071792;28;20062;-56
2023/12/09 08:34:12;;;;;;;3.07;0.93;;;7.40;99.90;;;;;;5071751;28;20562;-55
2023/12/09 08:36:38;;;;;;;2.17;0.83;;;7.40;99.90;;;;;;5071689;28;20029;-58
2023/12/09 08:39:04;;;;;;;3.07;1.13;;;7.40;99.90;;;;;;5085883;22;20516;-59
2023/12/09 08:41:30;;;;;;;2.77;1.10;;;7.40;99.90;;;;;;5071753;28;20031;-59
2023/12/09 08:43:55;;;;;;;4.47;1.17;;;7.50;99.90;;;;;;5071801;28;20024;-59
2023/12/09 08:46:22;;;;;;;1.90;0.90;;;7.50;99.90;;;;;;5071642;28;20044;-60
2023/12/09 08:48:48;;;;;;;4.10;1.00;;;7.60;99.90;;;;;;5071620;28;20115;-60
2023/12/09 08:51:14;;;;;;;5.80;0.80;;;7.60;99.90;;;;;;5071709;28;20067;-59
2023/12/09 08:53:39;;;;;;;3.37;1.03;;;7.60;99.90;;;;;;5071610;28;20478;-60
2023/12/09 08:56:05;;;;;;;2.67;0.60;;;7.60;99.90;;;;;;5071452;28;20028;-59
2023/12/09 08:58:31;;;;;;;4.00;1.23;;;7.70;99.90;;;;;;5071424;28;20039;-57
2023/12/09 09:00:56;;;;;;;2.67;0.67;;;7.70;99.90;;;;;;5071555;28;20111;-58
2023/12/09 09:03:23;;;;;;;3.37;0.93;;;7.80;99.90;;;;;;5075079;28;20028;-60
2023/12/09 09:05:48;;;;;;;1.73;0.93;;;7.80;99.90;;;;;;5075646;28;20041;-60
2023/12/09 09:08:14;;;;;;;6.40;1.23;;;7.90;99.90;;;;;;5075548;28;20024;-61
2023/12/09 09:10:40;;;;;;;3.03;1.03;;;7.90;99.90;;;;;;5075409;28;20029;-61
2023/12/09 09:13:05;;;;;;;4.60;1.50;;;8.00;99.90;;;;;;5075380;28;20036;-60
2023/12/09 09:15:32;;;;;;;3.87;1.20;;;8.00;99.90;;;;;;5075642;28;20405;-59
2023/12/09 09:17:57;;;;;;;3.83;1.07;;;8.10;99.90;;;;;;5057581;28;20119;-59
2023/12/09 09:20:24;;;;;;;4.33;1.07;;;8.10;99.90;;;;;;5075366;28;20109;-60
2023/12/09 09:22:49;;;;;;;4.60;1.10;;;8.10;99.90;;;;;;5075232;28;20028;-60
2023/12/09 09:25:15;;;;;;;6.23;1.00;;;8.20;99.90;;;;;;5075262;28;20120;-60
2023/12/09 09:27:41;;;;;;;5.43;1.20;;;8.20;99.90;;;;;;5075268;28;20075;-60
2023/12/09 09:30:07;;;;;;;2.60;1.00;;;8.30;99.90;;;;;;5074969;28;20105;-59
2023/12/09 09:32:33;;;;;;;3.50;1.07;;;8.40;99.90;;;;;;5074956;28;20041;-59
2023/12/09 09:34:59;;;;;;;7.93;1.10;;;8.40;99.90;;;;;;5074942;28;20381;-60
2023/12/09 09:37:25;;;;;;;3.87;0.97;;;8.50;99.90;;;;;;5074731;28;20109;-59
2023/12/09 09:39:50;;;;;;;2.70;1.07;;;8.60;99.90;;;;;;5074673;28;20111;-60
2023/12/09 09:42:36;;;;;;;2.63;1.00;;;8.70;99.90;;;;;;5074600;28;20454;-60
2023/12/09 09:45:22;;;;;;;3.47;0.87;;;8.80;99.90;;;;;;5074818;28;20411;-60
2023/12/09 09:47:49;;;;;;;4.43;1.00;;;8.90;99.90;;;;;;5074792;28;20477;-60
2023/12/09 09:50:23;;;;;;;4.27;1.00;;;9.00;99.90;;;;;;5074566;28;20043;-60
2023/12/09 09:52:50;;;;;;;5.33;1.20;;;9.00;99.90;;;;;;5074608;28;20061;-60
2023/12/09 09:55:20;;;;;;;3.57;1.17;;;9.10;99.90;;;;;;5074478;28;20020;-60
2023/12/09 09:57:48;;;;;;;2.50;1.07;;;9.20;99.90;;;;;;5074530;28;20031;-60
2023/12/09 10:00:15;;;;;;;3.30;0.93;;;9.10;99.90;;;;;;5074486;28;20094;-60
2023/12/09 10:02:46;;;;;;;1.83;0.77;;;8.90;99.90;;;;;;5074681;28;20479;-60
2023/12/09 10:05:14;;;;;;;6.60;1.30;;;8.80;99.90;;;;;;5074240;28;20032;-60
2023/12/09 10:07:40;;;;;;;5.17;1.10;;;8.70;99.90;;;;;;5074594;28;20041;-60
2023/12/09 10:10:06;;;;;;;2.07;0.90;;;8.60;99.90;;;;;;5074395;28;20082;-60
2023/12/09 10:12:33;;;;;;;5.70;1.37;;;8.60;99.90;;;;;;5074099;28;20048;-60
2023/12/09 10:15:01;;;;;;;3.00;0.77;;;8.50;99.90;;;;;;5073538;28;20047;-60
2023/12/09 10:17:27;;;;;;;5.37;1.03;;;8.50;99.90;;;;;;5074084;28;20036;-60
2023/12/09 10:19:56;;;;;;;4.17;1.37;;;8.50;99.90;;;;;;5074974;28;20031;-60
2023/12/09 10:22:22;;;;;;;4.95;1.20;;;8.50;99.90;;;;;;5074251;28;20060;-60
2023/12/09 10:24:51;;;;;;;3.10;1.00;;;8.50;99.90;;;;;;5056470;28;20445;-60
2023/12/09 10:27:20;;;;;;;2.75;1.13;;;8.50;99.90;;;;;;5073983;28;20101;-60
2023/12/09 10:29:45;;;;;;;3.88;0.82;;;8.50;99.90;;;;;;5074013;28;20534;-60
2023/12/09 10:32:12;;;;;;;3.03;1.13;;;8.50;99.90;;;;;;5073958;28;20032;-60
2023/12/09 10:34:39;;;;;;;5.83;1.43;;;8.50;99.90;;;;;;5073957;28;20029;-61
2023/12/09 10:37:11;;;;;;;6.47;1.10;;;8.60;99.90;;;;;;5074085;28;20044;-60
2023/12/09 10:39:41;;;;;;;2.83;0.90;;;8.50;99.90;;;;;;5074097;28;20040;-60
2023/12/09 10:42:09;;;;;;;6.13;1.00;;;8.50;99.90;;;;;;5074102;28;20037;-60
2023/12/09 10:44:34;;;;;;;3.77;1.00;;;8.60;99.90;;;;;;5074228;28;20397;-60
2023/12/09 10:47:00;;;;;;;4.90;1.60;;;8.60;99.90;;;;;;5073707;28;20040;-60
2023/12/09 10:49:26;;;;;;;7.63;1.77;;;8.60;99.90;;;;;;5073808;28;20029;-59
2023/12/09 10:51:51;;;;;;;5.47;1.00;;;8.60;99.90;;;;;;5073646;28;20042;-60
2023/12/09 10:54:17;;;;;;;2.23;0.70;;;8.70;99.90;;;;;;5073808;28;20074;-58
2023/12/09 10:56:43;;;;;;;3.13;0.70;;;8.70;99.90;;;;;;5055549;28;20059;-59
2023/12/09 10:59:09;;;;;;;4.20;1.10;;;8.70;99.90;;;;;;5073403;28;20031;-59
2023/12/09 11:01:35;;;;;;;3.40;1.10;;;8.70;99.90;;;;;;5073286;28;20033;-60
2023/12/09 11:04:03;;;;;;;5.70;1.17;;;8.70;99.90;;;;;;5073316;28;20096;-60
2023/12/09 11:06:36;;;;;;;4.43;1.40;;;8.70;99.90;;;;;;5073351;28;20475;-60
2023/12/09 11:09:05;;;;;;;3.73;1.00;;;8.80;99.90;;;;;;5073257;28;20036;-59
2023/12/09 11:11:31;;;;;;;3.75;1.05;;;8.80;99.90;;;;;;5073267;28;20112;-60
2023/12/09 11:13:58;;;;;;;3.57;0.60;;;8.70;99.90;;;;;;5073436;28;20132;-60
2023/12/09 11:16:27;;;;;;;4.57;1.20;;;8.80;99.90;;;;;;5072960;28;20111;-59
2023/12/09 11:18:57;;;;;;;3.45;0.82;;;8.70;99.90;;;;;;5072819;28;20032;-60
2023/12/09 11:21:28;;;;;;;9.77;1.10;;;8.80;99.90;;;;;;5073713;28;20371;-61
2023/12/09 11:23:56;;;;;;;2.37;0.50;;;8.80;99.90;;;;;;5072946;28;20028;-59
2023/12/09 11:26:33;;;;;;;5.53;1.33;;;8.80;99.90;;;;;;5072364;28;20047;-59
2023/12/09 11:28:58;;;;;;;5.23;1.03;;;8.80;99.90;;;;;;5072787;28;20283;-59
2023/12/09 11:31:46;;;;;;;2.03;0.57;;;8.80;99.90;;;;;;5072918;28;20496;-61
2023/12/09 11:34:16;;;;;;;4.50;1.43;;;8.80;99.90;;;;;;5072711;28;20041;-61
2023/12/09 11:36:44;;;;;;;5.83;0.90;;;8.80;99.90;;;;;;5072573;28;20079;-60
2023/12/09 11:39:17;;;;;;;2.67;0.90;;;8.90;99.90;;;;;;5072586;28;20370;-59
2023/12/09 11:41:44;;;;;;;4.60;1.00;;;8.80;99.90;;;;;;5072602;28;20032;-59
2023/12/09 11:44:11;;;;;;;6.20;1.40;;;8.90;99.90;;;;;;5072600;28;20121;-59
2023/12/09 11:46:37;;;;;;;2.00;0.80;;;8.80;99.90;;;;;;5072314;28;20052;-59
2023/12/09 11:49:04;;;;;;;3.73;1.00;;;8.90;99.90;;;;;;5072489;28;20059;-59
2023/12/09 11:51:31;;;;;;;3.87;0.90;;;8.90;99.90;;;;;;5072450;28;20504;-59
2023/12/09 11:54:02;;;;;;;4.53;1.10;;;8.90;99.90;;;;;;5072278;28;20037;-59
2023/12/09 11:56:28;;;;;;;4.73;0.90;;;8.90;99.90;;;;;;5072269;28;20044;-59
2023/12/09 11:58:54;;;;;;;5.13;0.80;;;8.90;99.90;;;;;;5072322;28;20398;-59
2023/12/09 12:01:22;;;;;;;4.53;1.20;;;9.00;99.90;;;;;;5072287;28;20032;-59
2023/12/09 12:03:49;;;;;;;4.70;1.10;;;8.90;99.90;;;;;;5072012;28;20040;-59
2023/12/09 12:06:16;;;;;;;3.53;1.00;;;9.00;99.90;;;;;;5072058;28;20044;-59
2023/12/09 12:08:46;;;;;;;5.60;0.93;;;8.90;99.90;;;;;;5072064;28;20107;-60
2023/12/09 12:11:13;;;;;;;5.50;1.13;;;8.90;99.90;;;;;;5037453;28;20086;-60
2023/12/09 12:13:40;;;;;;;5.20;1.10;;;8.90;99.90;;;;;;5072050;28;20028;-58
2023/12/09 12:16:06;;;;;;;7.70;1.67;;;8.90;99.90;;;;;;5071879;28;20396;-60
2023/12/09 12:18:33;;;;;;;5.10;1.20;;;8.90;99.90;;;;;;5071821;28;20029;-60
2023/12/09 12:20:59;;;;;;;3.67;0.93;;;8.90;99.90;;;;;;5072049;28;20024;-60
2023/12/09 12:23:25;;;;;;;7.57;0.83;;;8.90;99.90;;;;;;5072031;28;20082;-60
2023/12/09 12:25:54;;;;;;;4.90;1.13;;;8.80;99.90;;;;;;5072008;28;20039;-58
2023/12/09 12:28:20;;;;;;;3.72;1.40;;;8.80;99.90;;;;;;5072108;28;20036;-59
2023/12/09 12:30:50;;;;;;;5.23;1.00;;;8.80;99.90;;;;;;5071898;28;20060;-59
2023/12/09 12:33:16;;;;;;;6.40;1.20;;;8.90;99.90;;;;;;5072161;28;20089;-59
2023/12/09 12:35:41;;;;;;;3.50;1.43;;;8.90;99.90;;;;;;5071457;28;20024;-59
2023/12/09 12:38:07;;;;;;;4.50;1.17;;;8.80;99.90;;;;;;5071223;28;20039;-58
2023/12/09 12:40:33;;;;;;;9.30;1.53;;;8.90;99.90;;;;;;5071675;28;20028;-60
2023/12/09 12:43:03;;;;;;;6.23;1.40;;;8.90;99.90;;;;;;5071812;28;20426;-59
2023/12/09 12:45:31;;;;;;;4.00;0.73;;;8.90;99.90;;;;;;5071505;28;20128;-59
2023/12/09 12:47:56;;;;;;;4.60;0.77;;;8.90;99.90;;;;;;5071607;28;20078;-61
2023/12/09 12:50:22;;;;;;;2.63;0.70;;;9.00;99.90;;;;;;5071363;28;20493;-59
2023/12/09 12:52:47;;;;;;;4.43;1.50;;;9.00;99.90;;;;;;5071617;28;20036;-59
2023/12/09 12:55:13;;;;;;;8.70;2.33;;;9.10;99.90;;;;;;5071596;28;20032;-58